createdAt,value
2018-03-30T00:02:00.520Z,99.90
2018-03-30T00:04:27.046Z,99.90
2018-03-30T00:06:53.493Z,99.90
2018-03-30T00:09:32.231Z,99.90
2018-03-30T00:11:58.642Z,99.90
2018-03-30T00:14:25.074Z,99.90
2018-03-30T00:16:51.516Z,99.90
2018-03-30T00:19:17.901Z,99.90
2018-03-30T00:21:44.404Z,99.90
2018-03-30T00:24:10.886Z,99.90
2018-03-30T00:26:37.373Z,99.90
2018-03-30T00:29:03.888Z,99.90
2018-03-30T00:31:30.341Z,99.90
2018-03-30T00:33:56.727Z,99.90
2018-03-30T00:36:23.116Z,99.90
2018-03-30T00:38:49.543Z,99.90
2018-03-30T00:41:15.942Z,99.90
2018-03-30T00:43:42.342Z,99.90
2018-03-30T00:46:08.876Z,99.90
2018-03-30T00:48:36.146Z,99.90
2018-03-30T00:51:02.618Z,99.90
2018-03-30T00:53:41.415Z,99.90
2018-03-30T00:56:07.984Z,99.90
2018-03-30T00:58:35.153Z,99.90
2018-03-30T01:01:02.384Z,99.90
2018-03-30T01:03:29.023Z,99.90
2018-03-30T01:05:55.427Z,99.90
2018-03-30T01:08:22.192Z,99.90
2018-03-30T01:10:48.621Z,99.90
2018-03-30T01:13:15.043Z,99.90
2018-03-30T01:15:41.496Z,99.90
2018-03-30T01:18:07.935Z,99.90
2018-03-30T01:20:36.002Z,99.90
2018-03-30T01:23:03.184Z,99.90
2018-03-30T01:25:29.625Z,99.90
2018-03-30T01:27:56.115Z,99.90
2018-03-30T01:30:22.589Z,99.90
2018-03-30T01:32:48.999Z,99.90
2018-03-30T01:35:15.441Z,99.90
2018-03-30T01:37:41.866Z,99.90
2018-03-30T01:40:09.008Z,99.90
2018-03-30T01:42:35.410Z,99.90
2018-03-30T01:45:01.967Z,99.90
2018-03-30T01:47:28.448Z,99.90
2018-03-30T01:49:55.057Z,99.90
2018-03-30T01:52:21.534Z,99.90
2018-03-30T01:54:48.010Z,99.90
2018-03-30T01:57:14.463Z,99.90
2018-03-30T01:59:41.641Z,99.90
2018-03-30T02:02:08.125Z,99.90
2018-03-30T02:04:34.587Z,99.90
2018-03-30T02:07:01.043Z,99.90
2018-03-30T02:09:27.524Z,99.90
2018-03-30T02:11:53.963Z,99.90
2018-03-30T02:14:20.454Z,99.90
2018-03-30T02:16:46.876Z,99.90
2018-03-30T02:19:13.282Z,99.90
2018-03-30T02:21:40.490Z,99.90
2018-03-30T02:24:06.900Z,99.90
2018-03-30T02:26:33.309Z,99.90
2018-03-30T02:29:00.017Z,99.90
2018-03-30T02:31:26.415Z,99.90
2018-03-30T02:33:52.828Z,99.90
2018-03-30T02:36:19.244Z,99.90
2018-03-30T02:38:45.656Z,99.90
2018-03-30T02:41:12.125Z,99.90
2018-03-30T02:43:38.574Z,99.90
2018-03-30T02:46:05.001Z,99.90
2018-03-30T02:48:31.400Z,99.90
2018-03-30T02:50:58.113Z,99.90
2018-03-30T02:53:25.283Z,99.90
2018-03-30T02:55:52.484Z,99.90
2018-03-30T02:58:19.053Z,99.90
2018-03-30T03:00:45.444Z,99.90
2018-03-30T03:03:11.838Z,99.90
2018-03-30T03:05:38.267Z,99.90
2018-03-30T03:08:05.412Z,99.90
2018-03-30T03:10:31.832Z,99.90
2018-03-30T03:12:58.260Z,99.90
2018-03-30T03:15:24.652Z,99.90
2018-03-30T03:17:51.114Z,99.90
2018-03-30T03:20:17.655Z,99.90
2018-03-30T03:22:44.144Z,99.90
2018-03-30T03:25:10.558Z,99.90
2018-03-30T03:27:37.889Z,99.90
2018-03-30T03:30:05.079Z,99.90
2018-03-30T03:32:31.536Z,99.90
2018-03-30T03:34:57.978Z,99.90
2018-03-30T03:37:24.515Z,99.90
2018-03-30T03:39:50.996Z,99.90
2018-03-30T03:42:17.507Z,99.90
2018-03-30T03:44:43.919Z,99.90
2018-03-30T03:47:10.323Z,99.90
2018-03-30T03:49:36.910Z,99.90
2018-03-30T03:52:03.431Z,99.90
2018-03-30T03:54:29.887Z,99.90
2018-03-30T03:56:56.316Z,99.90
2018-03-30T03:59:23.464Z,99.90
2018-03-30T04:01:49.893Z,99.90
2018-03-30T04:04:16.315Z,99.90
2018-03-30T04:06:42.751Z,99.90
2018-03-30T04:09:09.147Z,99.90
2018-03-30T04:11:35.581Z,99.90
2018-03-30T04:14:02.105Z,99.90
2018-03-30T04:16:28.524Z,99.90
2018-03-30T04:18:54.981Z,99.90
2018-03-30T04:21:21.376Z,99.90
2018-03-30T04:23:48.511Z,99.90
2018-03-30T04:28:48.094Z,99.90
2018-03-30T04:31:14.562Z,99.90
2018-03-30T04:33:41.022Z,99.90
2018-03-30T04:36:08.147Z,99.90
2018-03-30T04:38:34.561Z,99.90
2018-03-30T04:41:07.878Z,99.90
2018-03-30T04:43:34.282Z,99.90
2018-03-30T04:46:00.746Z,99.90
2018-03-30T04:48:27.151Z,99.90
2018-03-30T04:50:53.536Z,99.90
2018-03-30T04:53:19.935Z,99.90
2018-03-30T04:55:46.472Z,99.90
2018-03-30T04:58:12.895Z,99.90
2018-03-30T05:00:39.285Z,99.90
2018-03-30T05:03:05.699Z,99.90
2018-03-30T05:05:33.566Z,99.90
2018-03-30T05:07:59.988Z,99.90
2018-03-30T05:10:27.176Z,99.90
2018-03-30T05:12:53.654Z,99.90
2018-03-30T05:15:20.189Z,99.90
2018-03-30T05:17:46.630Z,99.90
2018-03-30T05:20:13.090Z,99.90
2018-03-30T05:22:39.516Z,99.90
2018-03-30T05:25:06.719Z,99.90
2018-03-30T05:27:33.121Z,99.90
2018-03-30T05:29:59.607Z,99.90
2018-03-30T05:32:26.096Z,99.90
2018-03-30T05:34:52.486Z,99.90
2018-03-30T05:37:18.898Z,99.90
2018-03-30T05:39:45.349Z,99.90
2018-03-30T05:42:12.485Z,99.90
2018-03-30T05:44:38.887Z,99.90
2018-03-30T05:47:05.354Z,99.90
2018-03-30T05:49:31.802Z,99.90
2018-03-30T05:51:59.041Z,99.90
2018-03-30T05:54:25.499Z,99.90
2018-03-30T05:56:51.968Z,99.90
2018-03-30T05:59:18.448Z,93.00
2018-03-30T06:01:44.857Z,83.20
2018-03-30T06:04:11.306Z,73.30
2018-03-30T06:06:38.466Z,62.10
2018-03-30T06:09:04.971Z,62.20
2018-03-30T06:11:31.365Z,60.10
2018-03-30T06:13:57.820Z,57.10
2018-03-30T06:16:24.369Z,54.50
2018-03-30T06:18:50.769Z,52.70
2018-03-30T06:21:17.167Z,50.10
2018-03-30T06:23:44.319Z,49.60
2018-03-30T06:26:11.480Z,50.40
2018-03-30T06:28:38.614Z,50.80
2018-03-30T06:31:05.786Z,53.90
2018-03-30T06:33:32.198Z,53.30
2018-03-30T06:35:59.385Z,60.20
2018-03-30T06:38:25.818Z,60.30
2018-03-30T06:40:52.308Z,62.60
2018-03-30T06:43:18.845Z,64.10
2018-03-30T06:45:45.268Z,65.90
2018-03-30T06:48:11.809Z,70.30
2018-03-30T06:50:38.215Z,77.10
2018-03-30T06:53:04.685Z,76.40
2018-03-30T06:55:31.060Z,75.10
2018-03-30T06:57:57.498Z,82.20
2018-03-30T07:00:23.954Z,80.10
2018-03-30T07:02:50.338Z,83.80
2018-03-30T07:05:16.726Z,86.40
2018-03-30T07:07:43.140Z,90.30
2018-03-30T07:10:09.540Z,90.80
2018-03-30T07:12:35.961Z,94.20
2018-03-30T07:15:03.178Z,79.00
2018-03-30T07:17:29.599Z,79.00
2018-03-30T07:19:56.035Z,74.00
2018-03-30T07:22:22.683Z,73.00
2018-03-30T07:24:49.093Z,70.00
2018-03-30T07:27:15.493Z,68.60
2018-03-30T07:29:42.077Z,62.40
2018-03-30T07:32:08.610Z,59.60
2018-03-30T07:34:35.016Z,61.20
2018-03-30T07:37:01.450Z,54.80
2018-03-30T07:39:27.903Z,53.00
2018-03-30T07:41:54.567Z,53.20
2018-03-30T07:44:21.771Z,49.20
2018-03-30T07:46:48.223Z,49.10
2018-03-30T07:49:14.684Z,47.60
2018-03-30T07:51:41.140Z,47.40
2018-03-30T07:54:07.608Z,46.00
2018-03-30T07:56:34.012Z,42.20
2018-03-30T07:59:01.212Z,39.60
2018-03-30T08:01:27.670Z,39.50
2018-03-30T08:04:02.003Z,39.30
2018-03-30T08:06:29.245Z,38.10
2018-03-30T08:08:56.380Z,36.60
2018-03-30T08:11:24.362Z,35.20
2018-03-30T08:13:51.533Z,34.50
2018-03-30T08:16:18.015Z,34.40
2018-03-30T08:18:44.424Z,32.10
2018-03-30T08:21:11.550Z,31.90
2018-03-30T08:23:38.686Z,31.20
2018-03-30T08:26:05.914Z,31.50
2018-03-30T08:28:32.359Z,31.50
2018-03-30T08:30:59.610Z,30.00
2018-03-30T08:33:26.051Z,30.00
2018-03-30T08:35:52.579Z,30.00
2018-03-30T08:38:19.032Z,28.60
2018-03-30T08:40:45.463Z,28.30
2018-03-30T08:43:12.629Z,26.70
2018-03-30T08:45:39.031Z,26.70
2018-03-30T08:48:06.227Z,26.00
2018-03-30T08:50:32.816Z,25.90
2018-03-30T08:53:00.074Z,26.50
2018-03-30T08:55:27.278Z,27.40
2018-03-30T08:57:53.694Z,27.30
2018-03-30T09:00:20.833Z,30.30
2018-03-30T09:02:48.016Z,33.30
2018-03-30T09:05:14.485Z,33.90
2018-03-30T09:07:40.892Z,35.30
2018-03-30T09:10:07.455Z,36.60
2018-03-30T09:12:33.991Z,38.60
2018-03-30T09:15:01.160Z,41.70
2018-03-30T09:17:28.372Z,42.70
2018-03-30T09:19:54.820Z,42.70
2018-03-30T09:22:21.247Z,44.00
2018-03-30T09:24:47.797Z,44.60
2018-03-30T09:27:14.942Z,46.30
2018-03-30T09:29:48.267Z,46.80
2018-03-30T09:32:15.473Z,47.20
2018-03-30T09:34:41.905Z,47.20
2018-03-30T09:37:08.346Z,47.80
2018-03-30T09:39:34.814Z,48.20
2018-03-30T09:42:02.036Z,48.20
2018-03-30T09:44:28.507Z,48.20
2018-03-30T09:46:54.928Z,47.60
2018-03-30T09:49:22.092Z,48.20
2018-03-30T09:51:48.568Z,48.20
2018-03-30T09:54:14.967Z,48.50
2018-03-30T09:56:41.375Z,48.90
2018-03-30T09:59:08.612Z,50.50
2018-03-30T10:01:35.033Z,50.50
2018-03-30T10:04:01.506Z,51.10
2018-03-30T10:06:27.946Z,52.00
2018-03-30T10:08:54.338Z,52.50
2018-03-30T10:11:20.978Z,53.10
2018-03-30T10:13:48.222Z,52.80
2018-03-30T10:16:14.635Z,52.30
2018-03-30T10:18:41.019Z,53.10
2018-03-30T10:21:08.185Z,54.90
2018-03-30T10:23:34.887Z,54.90
2018-03-30T10:26:02.138Z,54.50
2018-03-30T10:28:29.346Z,55.50
2018-03-30T10:30:55.747Z,55.40
2018-03-30T10:33:22.130Z,55.30
2018-03-30T10:35:48.693Z,56.10
2018-03-30T10:38:15.938Z,54.10
2018-03-30T10:40:42.377Z,54.10
2018-03-30T10:43:09.626Z,54.00
2018-03-30T10:45:37.599Z,53.70
2018-03-30T10:48:04.052Z,53.60
2018-03-30T10:50:30.517Z,52.60
2018-03-30T10:52:56.975Z,52.90
2018-03-30T10:55:23.533Z,53.40
2018-03-30T10:57:50.717Z,53.10
2018-03-30T11:00:17.854Z,52.60
2018-03-30T11:02:44.310Z,52.50
2018-03-30T11:05:10.752Z,51.70
2018-03-30T11:07:37.202Z,51.50
2018-03-30T11:10:03.643Z,51.20
2018-03-30T11:12:30.125Z,50.20
2018-03-30T11:14:56.582Z,49.00
2018-03-30T11:17:23.063Z,49.10
2018-03-30T11:19:49.499Z,49.20
2018-03-30T11:22:15.895Z,48.30
2018-03-30T11:24:42.350Z,48.20
2018-03-30T11:27:09.005Z,48.10
2018-03-30T11:29:36.190Z,48.10
2018-03-30T11:32:02.620Z,48.10
2018-03-30T11:34:29.120Z,48.00
2018-03-30T11:36:55.569Z,47.60
2018-03-30T11:39:22.726Z,47.10
2018-03-30T11:41:49.910Z,47.20
2018-03-30T11:44:16.339Z,47.20
2018-03-30T11:46:42.823Z,47.50
2018-03-30T11:49:09.267Z,44.80
2018-03-30T11:51:36.430Z,44.60
2018-03-30T11:54:03.596Z,44.70
2018-03-30T11:56:30.192Z,44.70
2018-03-30T11:58:57.436Z,46.60
2018-03-30T12:01:24.622Z,46.00
2018-03-30T12:03:51.208Z,46.00
2018-03-30T12:06:17.766Z,45.10
2018-03-30T12:08:45.034Z,43.90
2018-03-30T12:11:11.527Z,43.90
2018-03-30T12:13:37.904Z,43.50
2018-03-30T12:16:04.428Z,44.20
2018-03-30T12:18:30.878Z,44.60
2018-03-30T12:20:57.259Z,45.30
2018-03-30T12:23:23.674Z,45.00
2018-03-30T12:25:50.112Z,44.80
2018-03-30T12:28:23.607Z,44.80
2018-03-30T12:30:50.932Z,45.80
2018-03-30T12:33:17.371Z,45.80
2018-03-30T12:35:44.503Z,45.40
2018-03-30T12:38:10.985Z,45.40
2018-03-30T12:40:38.253Z,45.30
2018-03-30T12:43:04.675Z,45.30
2018-03-30T12:45:31.207Z,45.60
2018-03-30T12:47:57.752Z,45.60
2018-03-30T12:50:24.147Z,45.70
2018-03-30T12:52:50.575Z,45.60
2018-03-30T12:55:17.723Z,46.00
2018-03-30T12:57:44.183Z,46.10
2018-03-30T13:00:10.635Z,46.20
2018-03-30T13:02:37.075Z,46.30
2018-03-30T13:05:03.496Z,46.50
2018-03-30T13:07:30.133Z,47.20
2018-03-30T13:09:56.638Z,48.00
2018-03-30T13:12:23.040Z,48.20
2018-03-30T13:14:50.226Z,48.20
2018-03-30T13:17:16.663Z,48.20
2018-03-30T13:19:43.112Z,47.90
2018-03-30T13:22:09.552Z,48.60
2018-03-30T13:24:36.068Z,49.00
2018-03-30T13:27:02.527Z,49.50
2018-03-30T13:29:29.013Z,50.00
2018-03-30T13:31:55.494Z,49.80
2018-03-30T13:34:21.959Z,50.20
2018-03-30T13:36:48.379Z,50.30
2018-03-30T13:39:14.816Z,50.50
2018-03-30T13:41:41.253Z,50.40
2018-03-30T13:44:08.467Z,50.90
2018-03-30T13:46:34.932Z,50.90
2018-03-30T13:49:02.121Z,50.40
2018-03-30T13:51:46.237Z,50.40
2018-03-30T13:54:15.252Z,50.40
2018-03-30T13:56:41.738Z,50.40
2018-03-30T13:59:10.962Z,51.00
2018-03-30T14:04:55.487Z,52.30
2018-03-30T14:07:26.571Z,52.80
2018-03-30T14:09:53.017Z,53.00
2018-03-30T14:12:26.323Z,52.90
2018-03-30T14:14:53.482Z,53.70
2018-03-30T14:17:27.670Z,53.30
2018-03-30T14:19:58.790Z,53.40
2018-03-30T14:22:30.171Z,53.40
2018-03-30T14:24:57.567Z,53.60
2018-03-30T14:27:28.871Z,53.40
2018-03-30T14:29:57.268Z,53.50
2018-03-30T14:32:37.235Z,53.50
2018-03-30T14:35:08.704Z,53.40
2018-03-30T14:37:47.101Z,53.60
2018-03-30T14:40:26.431Z,54.30
2018-03-30T14:42:53.953Z,54.60
2018-03-30T14:45:25.317Z,54.40
2018-03-30T14:47:56.324Z,55.90
2018-03-30T14:50:25.732Z,55.80
2018-03-30T14:52:54.799Z,56.30
2018-03-30T14:55:33.744Z,57.00
2018-03-30T15:00:59.835Z,55.00
2018-03-30T15:03:27.126Z,57.70
2018-03-30T15:08:58.896Z,58.60
2018-03-30T15:11:27.210Z,58.50
2018-03-30T15:14:03.177Z,59.60
2018-03-30T15:16:35.446Z,58.00
2018-03-30T15:19:06.684Z,58.00
2018-03-30T15:21:34.811Z,56.50
2018-03-30T15:24:06.015Z,57.50
2018-03-30T15:26:41.164Z,58.20
2018-03-30T15:29:08.343Z,58.70
2018-03-30T15:31:41.463Z,58.90
2018-03-30T15:34:16.672Z,58.90
2018-03-30T15:36:46.745Z,58.60
2018-03-30T15:39:13.202Z,58.60
2018-03-30T15:41:44.434Z,59.10
2018-03-30T15:44:10.893Z,58.90
2018-03-30T15:46:40.192Z,58.50
2018-03-30T15:49:06.675Z,58.80
2018-03-30T15:51:33.954Z,58.90
2018-03-30T15:54:00.910Z,59.00
2018-03-30T15:56:28.434Z,59.00
2018-03-30T15:58:56.395Z,58.50
2018-03-30T16:01:22.841Z,58.40
2018-03-30T16:03:50.044Z,57.40
2018-03-30T16:06:16.750Z,57.40
2018-03-30T16:08:43.285Z,57.60
2018-03-30T16:11:24.512Z,58.50
2018-03-30T16:13:51.095Z,58.40
2018-03-30T16:16:18.313Z,59.00
2018-03-30T16:18:55.929Z,58.10
2018-03-30T16:21:22.179Z,58.30
2018-03-30T16:23:48.383Z,59.00
2018-03-30T16:26:14.656Z,58.30
2018-03-30T16:28:41.080Z,58.70
2018-03-30T16:31:08.073Z,60.10
2018-03-30T16:33:34.385Z,60.10
2018-03-30T16:36:00.759Z,60.60
2018-03-30T16:38:26.999Z,61.70
2018-03-30T16:40:53.267Z,62.20
2018-03-30T16:43:19.653Z,62.80
2018-03-30T16:45:45.984Z,64.40
2018-03-30T16:48:12.320Z,64.70
2018-03-30T16:50:39.279Z,67.40
2018-03-30T16:53:06.258Z,68.50
2018-03-30T16:55:32.644Z,68.50
2018-03-30T16:57:59.896Z,70.10
2018-03-30T17:00:26.206Z,70.30
2018-03-30T17:02:53.972Z,70.20
2018-03-30T17:05:20.191Z,70.20
2018-03-30T17:07:47.250Z,71.70
2018-03-30T17:10:13.511Z,71.70
2018-03-30T17:12:40.519Z,72.70
2018-03-30T17:15:06.783Z,72.60
2018-03-30T17:17:33.790Z,75.00
2018-03-30T17:20:00.012Z,75.00
2018-03-30T17:22:26.248Z,75.30
2018-03-30T17:24:52.543Z,75.60
2018-03-30T17:27:18.776Z,76.20
2018-03-30T17:29:45.032Z,76.90
2018-03-30T17:32:11.389Z,79.20
2018-03-30T17:34:38.407Z,80.70
2018-03-30T17:37:04.681Z,80.60
2018-03-30T17:39:31.001Z,80.40
2018-03-30T17:41:57.209Z,79.30
2018-03-30T17:44:23.458Z,78.80
2018-03-30T17:46:49.736Z,78.70
2018-03-30T17:49:15.984Z,78.50
2018-03-30T17:51:42.197Z,79.50
2018-03-30T17:54:08.470Z,86.80
2018-03-30T17:56:34.709Z,85.10
2018-03-30T17:59:01.675Z,92.10
2018-03-30T18:01:27.931Z,92.40
2018-03-30T18:03:54.159Z,93.00
2018-03-30T18:06:20.386Z,93.60
2018-03-30T18:08:46.757Z,94.00
2018-03-30T18:11:19.994Z,94.00
2018-03-30T18:13:46.360Z,95.10
2018-03-30T18:16:12.642Z,97.20
2018-03-30T18:18:39.676Z,98.90
2018-03-30T18:21:05.942Z,98.90
2018-03-30T18:23:32.299Z,99.90
2018-03-30T18:25:58.551Z,99.90
2018-03-30T18:28:25.704Z,99.90
2018-03-30T18:30:52.752Z,99.90
2018-03-30T18:33:19.843Z,99.90
2018-03-30T18:35:46.228Z,99.90
2018-03-30T18:38:12.468Z,99.90
2018-03-30T18:40:39.584Z,99.90
2018-03-30T18:43:05.938Z,99.90
2018-03-30T18:45:32.216Z,99.90
2018-03-30T18:47:58.447Z,99.90
2018-03-30T18:50:24.856Z,99.90
2018-03-30T18:52:51.112Z,99.90
2018-03-30T18:55:17.485Z,99.90
2018-03-30T18:57:43.739Z,99.90
2018-03-30T19:00:10.762Z,99.90
2018-03-30T19:02:36.983Z,99.90
2018-03-30T19:05:03.233Z,99.90
2018-03-30T19:07:30.257Z,99.90
2018-03-30T19:09:56.506Z,99.90
2018-03-30T19:12:23.557Z,99.90
2018-03-30T19:14:49.902Z,99.90
2018-03-30T19:17:16.176Z,99.90
2018-03-30T19:19:49.499Z,99.90
2018-03-30T19:22:15.734Z,99.90
2018-03-30T19:24:42.755Z,99.90
2018-03-30T19:27:10.516Z,99.90
2018-03-30T19:29:36.836Z,99.90
2018-03-30T19:32:03.066Z,99.90
2018-03-30T19:34:29.352Z,99.90
2018-03-30T19:36:56.308Z,99.90
2018-03-30T19:39:22.598Z,99.90
2018-03-30T19:41:49.707Z,99.90
2018-03-30T19:44:15.935Z,99.90
2018-03-30T19:46:42.284Z,99.90
2018-03-30T19:49:08.661Z,99.90
2018-03-30T19:51:34.906Z,99.90
2018-03-30T19:54:01.168Z,99.90
2018-03-30T19:56:27.686Z,99.90
2018-03-30T19:58:53.928Z,99.90
2018-03-30T20:01:20.209Z,99.90
2018-03-30T20:03:46.455Z,99.90
2018-03-30T20:06:12.701Z,99.90
2018-03-30T20:08:39.731Z,99.90
2018-03-30T20:11:05.973Z,99.90
2018-03-30T20:13:32.219Z,99.90
2018-03-30T20:15:58.483Z,99.90
2018-03-30T20:18:25.054Z,99.90
2018-03-30T20:20:51.998Z,99.90
2018-03-30T20:23:18.309Z,99.90
2018-03-30T20:25:45.373Z,99.90
2018-03-30T20:28:11.617Z,99.90
2018-03-30T20:30:37.871Z,99.90
2018-03-30T20:33:04.913Z,99.90
2018-03-30T20:35:31.145Z,99.90
2018-03-30T20:37:57.504Z,99.90
2018-03-30T20:40:24.514Z,99.90
2018-03-30T20:42:50.780Z,99.90
2018-03-30T20:45:18.528Z,99.90
2018-03-30T20:47:44.817Z,99.90
2018-03-30T20:50:11.072Z,99.90
2018-03-30T20:52:37.315Z,99.90
2018-03-30T20:55:03.583Z,99.90
2018-03-30T20:57:30.581Z,99.90
2018-03-30T20:59:56.803Z,99.90
2018-03-30T21:02:23.116Z,99.90
2018-03-30T21:04:49.324Z,99.90
2018-03-30T21:07:15.550Z,99.90
2018-03-30T21:09:41.795Z,99.90
2018-03-30T21:12:08.032Z,99.90
2018-03-30T21:14:34.267Z,99.90
2018-03-30T21:17:00.599Z,99.90
2018-03-30T21:19:26.900Z,99.90
2018-03-30T21:21:53.199Z,99.90
2018-03-30T21:24:20.448Z,99.90
2018-03-30T21:26:47.501Z,99.90
2018-03-30T21:29:13.763Z,99.90
2018-03-30T21:31:40.065Z,99.90
2018-03-30T21:34:07.061Z,99.90
2018-03-30T21:36:33.330Z,99.90
2018-03-30T21:38:59.587Z,99.90
2018-03-30T21:41:25.819Z,99.90
2018-03-30T21:43:52.221Z,99.90
2018-03-30T21:46:19.248Z,99.90
2018-03-30T21:48:45.501Z,99.90
2018-03-30T21:51:12.527Z,99.90
2018-03-30T21:53:38.836Z,99.90
2018-03-30T21:56:05.148Z,99.90
2018-03-30T21:58:31.536Z,99.90
2018-03-30T22:00:59.339Z,99.90
2018-03-30T22:03:26.270Z,99.90
2018-03-30T22:05:52.521Z,99.90
2018-03-30T22:08:18.780Z,99.90
2018-03-30T22:10:44.991Z,99.90
2018-03-30T22:13:11.230Z,99.90
2018-03-30T22:15:37.489Z,99.90
2018-03-30T22:18:03.790Z,99.90
2018-03-30T22:20:30.226Z,99.90
2018-03-30T22:22:56.558Z,99.90
2018-03-30T22:25:23.580Z,99.90
2018-03-30T22:27:49.815Z,99.90
2018-03-30T22:30:16.210Z,99.90
2018-03-30T22:32:42.597Z,99.90
2018-03-30T22:35:09.053Z,99.90
2018-03-30T22:37:36.113Z,99.90
2018-03-30T22:40:02.360Z,99.90
2018-03-30T22:42:28.611Z,99.90
2018-03-30T22:44:54.826Z,99.90
2018-03-30T22:47:21.116Z,99.90
2018-03-30T22:49:47.447Z,99.90
2018-03-30T22:52:13.985Z,99.90
2018-03-30T22:54:40.963Z,99.90
2018-03-30T22:57:07.215Z,99.90
2018-03-30T22:59:33.482Z,99.90
2018-03-30T23:01:59.817Z,99.90
2018-03-30T23:04:26.050Z,99.90
2018-03-30T23:06:53.060Z,99.90
2018-03-30T23:09:19.278Z,99.90
2018-03-30T23:11:45.654Z,99.90
2018-03-30T23:14:12.682Z,99.90
2018-03-30T23:16:38.911Z,99.90
2018-03-30T23:19:05.177Z,99.90
2018-03-30T23:21:32.195Z,99.90
2018-03-30T23:23:58.398Z,99.90
2018-03-30T23:26:24.737Z,99.90
2018-03-30T23:28:51.775Z,99.90
2018-03-30T23:31:18.038Z,99.90
2018-03-30T23:33:44.262Z,99.90
2018-03-30T23:36:10.594Z,99.90
2018-03-30T23:38:36.927Z,99.90
2018-03-30T23:41:03.214Z,99.90
2018-03-30T23:43:29.481Z,99.90
2018-03-30T23:45:55.719Z,99.90
2018-03-30T23:48:22.660Z,99.90
2018-03-30T23:50:48.872Z,99.90
2018-03-30T23:53:15.102Z,99.90
2018-03-30T23:55:41.434Z,99.90
2018-03-30T23:58:07.781Z,99.90
